Time;durP1;ratioP1;P1;durP2;ratioP2;P2;SDS_P1;SDS_P2;PMS_P1;PMS_P2;Temp;Humidity;BMP_temperature;BMP_pressure;BME280_temperature;BME280_humidity;BME280_pressure;Samples;Min_cycle;Max_cycle;Signal;HPM_P1;HPM_P2
2022/08/13 04:02:22;;;;;;;2.20;2.10;;;18.00;90.20;;;;;;5051253;23;20549;-66
2022/08/13 04:04:50;;;;;;;2.30;2.10;;;18.00;90.50;;;;;;4958277;29;20459;-66
2022/08/13 04:07:20;;;;;;;2.07;1.97;;;18.00;90.60;;;;;;4958266;29;20518;-66
2022/08/13 04:09:47;;;;;;;2.50;2.30;;;18.00;90.80;;;;;;4957650;29;20962;-66
2022/08/13 04:12:14;;;;;;;2.20;2.10;;;18.00;90.90;;;;;;4958054;29;20475;-66
2022/08/13 04:14:42;;;;;;;2.57;2.40;;;18.00;91.10;;;;;;4957756;29;20515;-66
2022/08/13 04:17:10;;;;;;;2.87;2.40;;;18.00;91.00;;;;;;4958336;29;20456;-65
2022/08/13 04:19:39;;;;;;;2.63;2.10;;;18.00;91.10;;;;;;4959288;29;20463;-65
2022/08/13 04:22:07;;;;;;;2.20;2.10;;;18.00;91.80;;;;;;4958326;29;20483;-65
2022/08/13 04:24:35;;;;;;;2.63;2.20;;;18.00;92.40;;;;;;4957417;29;20462;-66
2022/08/13 04:27:02;;;;;;;3.03;2.30;;;18.00;92.20;;;;;;4957585;29;20506;-65
2022/08/13 04:29:29;;;;;;;2.33;2.13;;;18.00;92.40;;;;;;4957514;29;20459;-65
2022/08/13 04:31:56;;;;;;;2.40;2.30;;;18.00;92.50;;;;;;4957523;29;20602;-65
2022/08/13 04:34:26;;;;;;;2.77;2.50;;;18.00;92.60;;;;;;4957234;28;20462;-66
2022/08/13 04:36:55;;;;;;;2.57;2.43;;;18.00;93.00;;;;;;4958638;29;20451;-66
2022/08/13 04:39:22;;;;;;;2.60;2.40;;;18.00;93.20;;;;;;4957313;29;20475;-66
2022/08/13 04:41:49;;;;;;;2.60;2.47;;;17.90;93.90;;;;;;4957385;29;20476;-66
2022/08/13 04:44:16;;;;;;;2.13;1.93;;;17.90;93.90;;;;;;4957681;29;20494;-65
2022/08/13 04:46:42;;;;;;;3.27;2.40;;;17.90;94.00;;;;;;4957334;29;20463;-65
2022/08/13 04:49:11;;;;;;;2.97;2.13;;;17.90;94.20;;;;;;4957720;29;20460;-67
2022/08/13 04:51:38;;;;;;;4.27;2.87;;;17.90;94.30;;;;;;4957517;29;20857;-66
2022/08/13 04:54:07;;;;;;;2.70;2.60;;;17.90;94.30;;;;;;4957845;29;20460;-66
2022/08/13 04:56:34;;;;;;;2.27;2.17;;;17.90;94.70;;;;;;4957405;29;20491;-66
2022/08/13 04:59:02;;;;;;;2.20;2.10;;;18.00;95.20;;;;;;4957215;29;20455;-66
2022/08/13 05:01:29;;;;;;;3.43;2.73;;;18.00;95.00;;;;;;4957234;29;20486;-66
2022/08/13 05:03:56;;;;;;;3.03;2.80;;;18.00;95.10;;;;;;4957150;29;20459;-66
2022/08/13 05:06:23;;;;;;;7.73;2.90;;;17.90;94.90;;;;;;4957279;29;20460;-66
2022/08/13 05:08:50;;;;;;;3.70;3.07;;;17.90;95.00;;;;;;4957206;29;20466;-66
2022/08/13 05:11:19;;;;;;;2.90;2.60;;;17.90;95.60;;;;;;4957218;29;20479;-67
2022/08/13 05:13:47;;;;;;;2.50;2.30;;;17.90;95.80;;;;;;4957431;29;20456;-66
2022/08/13 05:16:16;;;;;;;2.63;2.40;;;17.90;95.70;;;;;;4957146;29;20460;-66
2022/08/13 05:18:45;;;;;;;3.70;2.93;;;17.90;95.80;;;;;;4957085;29;20862;-66
2022/08/13 05:21:14;;;;;;;2.20;2.10;;;17.90;96.40;;;;;;4965117;29;20455;-66
2022/08/13 05:23:42;;;;;;;3.63;2.43;;;17.90;96.50;;;;;;4975474;29;20431;-66
2022/08/13 05:26:10;;;;;;;3.23;3.03;;;18.00;96.30;;;;;;4973827;29;20466;-67
2022/08/13 05:28:38;;;;;;;2.40;2.30;;;18.10;96.10;;;;;;4959094;29;20507;-66
2022/08/13 05:31:05;;;;;;;3.03;2.83;;;18.20;96.00;;;;;;4963042;29;20483;-66
2022/08/13 05:33:33;;;;;;;3.17;2.97;;;18.30;95.20;;;;;;4967399;29;20484;-66
2022/08/13 05:36:02;;;;;;;2.37;2.27;;;18.40;95.20;;;;;;4968809;29;20455;-66
2022/08/13 05:38:31;;;;;;;2.70;2.50;;;18.60;95.00;;;;;;4961267;29;20465;-66
2022/08/13 05:40:59;;;;;;;2.80;2.60;;;18.70;94.60;;;;;;4958751;29;20482;-66
2022/08/13 05:43:27;;;;;;;2.37;2.17;;;18.80;94.40;;;;;;4957926;29;20455;-66
2022/08/13 05:45:58;;;;;;;2.67;2.57;;;19.00;93.40;;;;;;4955948;28;20596;-66
2022/08/13 05:48:25;;;;;;;3.50;3.23;;;19.20;92.70;;;;;;4956121;29;21035;-67
2022/08/13 05:50:52;;;;;;;2.40;2.30;;;19.40;91.70;;;;;;4956187;29;20487;-66
2022/08/13 05:53:18;;;;;;;2.60;2.47;;;19.60;90.60;;;;;;4956415;29;20495;-65
2022/08/13 05:55:45;;;;;;;2.83;2.63;;;19.70;90.20;;;;;;4956421;29;20518;-66
2022/08/13 05:58:12;;;;;;;2.33;2.23;;;19.80;90.00;;;;;;4955842;29;20462;-66
2022/08/13 06:03:28;;;;;;;2.70;2.60;;;20.00;88.40;;;;;;4956173;29;20502;-66
2022/08/13 06:05:59;;;;;;;4.93;2.20;;;20.20;88.80;;;;;;4956441;29;20507;-66
2022/08/13 06:08:28;;;;;;;3.00;2.50;;;20.30;86.80;;;;;;4955972;29;20463;-67
2022/08/13 06:10:55;;;;;;;3.80;2.70;;;20.50;85.80;;;;;;4955938;29;20489;-67
2022/08/13 06:13:22;;;;;;;2.50;2.40;;;20.60;84.40;;;;;;4955512;29;20459;-66
2022/08/13 06:15:57;;;;;;;2.83;2.63;;;20.70;87.30;;;;;;4956022;29;20463;-67
2022/08/13 06:18:26;;;;;;;2.83;2.20;;;20.90;90.60;;;;;;4956146;29;20444;-67
2022/08/13 06:20:55;;;;;;;2.00;1.90;;;21.20;89.10;;;;;;4955757;29;20481;-67
2022/08/13 06:23:24;;;;;;;2.37;2.27;;;21.50;85.60;;;;;;4955856;29;20456;-66
2022/08/13 06:25:52;;;;;;;2.37;2.27;;;22.00;80.50;;;;;;4955928;29;20455;-66
2022/08/13 06:28:20;;;;;;;4.13;2.43;;;22.50;78.90;;;;;;4956305;29;20451;-67
2022/08/13 06:30:49;;;;;;;2.90;2.57;;;23.00;76.30;;;;;;4955358;29;20487;-67
2022/08/13 06:33:21;;;;;;;1.90;1.90;;;23.40;72.60;;;;;;4956093;29;20459;-67
2022/08/13 06:35:50;;;;;;;5.83;2.23;;;23.80;70.20;;;;;;4956007;29;20859;-67
2022/08/13 06:38:19;;;;;;;5.10;2.70;;;24.30;69.20;;;;;;4956214;29;20459;-67
2022/08/13 06:40:46;;;;;;;2.23;2.13;;;24.70;68.30;;;;;;4955673;29;20475;-67
2022/08/13 06:43:14;;;;;;;2.40;2.27;;;25.10;66.70;;;;;;4955729;29;20466;-67
2022/08/13 06:45:42;;;;;;;2.20;2.00;;;25.70;63.90;;;;;;4955721;29;20456;-67
2022/08/13 06:48:10;;;;;;;2.47;2.27;;;26.00;61.60;;;;;;4955711;29;20455;-67
2022/08/13 06:50:37;;;;;;;2.60;2.40;;;26.30;59.60;;;;;;4955449;29;20538;-68
2022/08/13 06:53:06;;;;;;;2.33;2.10;;;26.70;58.40;;;;;;4955582;29;20883;-66
2022/08/13 06:55:36;;;;;;;2.30;2.00;;;26.90;58.10;;;;;;4956022;28;20463;-67
2022/08/13 06:58:03;;;;;;;3.13;2.80;;;27.10;57.60;;;;;;4959405;29;21022;-67
2022/08/13 07:00:31;;;;;;;3.60;2.17;;;27.60;56.80;;;;;;4959090;29;20557;-67
2022/08/13 07:02:59;;;;;;;2.40;2.20;;;27.90;55.80;;;;;;4959272;29;20448;-67
2022/08/13 07:05:38;;;;;;;2.10;2.10;;;28.10;55.90;;;;;;4959086;29;20462;-66
2022/08/13 07:08:07;;;;;;;2.10;2.00;;;28.40;54.10;;;;;;4959120;29;20954;-67
2022/08/13 07:10:36;;;;;;;2.40;2.30;;;28.80;54.00;;;;;;4959128;29;20603;-67
2022/08/13 07:13:05;;;;;;;2.60;2.47;;;28.40;53.60;;;;;;4959152;29;20455;-67
2022/08/13 07:15:32;;;;;;;2.27;2.07;;;28.50;54.10;;;;;;4959576;29;20482;-66
2022/08/13 07:17:59;;;;;;;2.23;2.13;;;28.60;54.00;;;;;;4958772;29;20947;-67
2022/08/13 07:20:26;;;;;;;2.80;2.63;;;29.00;53.20;;;;;;4958738;29;20490;-69
2022/08/13 07:22:54;;;;;;;5.13;2.23;;;29.10;53.80;;;;;;4958835;29;20455;-66
2022/08/13 07:25:25;;;;;;;6.40;2.50;;;29.30;53.00;;;;;;4958941;29;20483;-66
2022/08/13 07:27:54;;;;;;;3.40;2.10;;;29.50;53.00;;;;;;4958919;29;20499;-66
2022/08/13 07:30:21;;;;;;;2.63;2.43;;;29.90;52.50;;;;;;4959190;29;20460;-66
2022/08/13 07:32:50;;;;;;;2.10;2.00;;;30.20;51.30;;;;;;4958494;29;20490;-66
2022/08/13 07:35:17;;;;;;;2.47;2.37;;;30.50;50.90;;;;;;4958563;29;20456;-66
2022/08/13 07:37:44;;;;;;;2.33;2.07;;;30.80;51.00;;;;;;4958545;29;20818;-66
2022/08/13 07:40:12;;;;;;;6.93;3.20;;;31.30;50.30;;;;;;4958207;29;20833;-66
2022/08/13 07:42:43;;;;;;;2.40;2.20;;;31.60;49.20;;;;;;4958396;29;20857;-67
2022/08/13 07:45:11;;;;;;;2.23;2.10;;;31.60;48.80;;;;;;4958030;29;20934;-66
2022/08/13 07:47:40;;;;;;;2.40;2.30;;;31.80;48.50;;;;;;4958451;29;20506;-67
2022/08/13 07:50:10;;;;;;;2.40;1.90;;;31.60;48.70;;;;;;4958289;29;20464;-66
2022/08/13 07:52:38;;;;;;;2.20;2.10;;;32.00;49.10;;;;;;4958348;29;20554;-71
2022/08/13 07:55:05;;;;;;;5.13;2.33;;;31.90;47.80;;;;;;4957990;29;20939;-64
2022/08/13 07:57:33;;;;;;;2.40;2.20;;;31.90;47.80;;;;;;4958305;29;21013;-65
2022/08/13 08:00:01;;;;;;;3.00;1.87;;;31.80;48.30;;;;;;4958503;29;20466;-66
2022/08/13 08:02:32;;;;;;;4.10;2.30;;;31.80;49.20;;;;;;4957790;29;20505;-65
2022/08/13 08:04:59;;;;;;;4.00;2.37;;;32.20;47.60;;;;;;4958306;29;20444;-65
2022/08/13 08:07:27;;;;;;;2.43;2.23;;;32.30;46.30;;;;;;4957472;28;20462;-64
2022/08/13 08:09:54;;;;;;;11.83;2.53;;;32.20;47.00;;;;;;4957582;29;20459;-65
2022/08/13 08:12:35;;;;;;;3.43;2.07;;;32.30;46.90;;;;;;4958011;29;20492;-65
2022/08/13 08:15:07;;;;;;;3.03;2.67;;;32.20;47.60;;;;;;4957965;29;20897;-64
2022/08/13 08:17:34;;;;;;;2.00;1.90;;;32.00;46.70;;;;;;4958075;29;20444;-65
2022/08/13 08:20:02;;;;;;;3.10;2.50;;;32.00;46.90;;;;;;4957598;29;20455;-64
2022/08/13 08:22:30;;;;;;;4.60;2.43;;;31.80;46.80;;;;;;4957742;29;20482;-66
2022/08/13 08:24:57;;;;;;;4.33;2.13;;;31.50;47.70;;;;;;4957956;29;20459;-64
2022/08/13 08:27:25;;;;;;;5.70;2.60;;;31.30;48.10;;;;;;4957797;29;20978;-65
2022/08/13 08:29:52;;;;;;;2.17;2.07;;;31.50;48.80;;;;;;4957709;29;20627;-65
2022/08/13 08:32:20;;;;;;;2.40;2.20;;;31.90;47.90;;;;;;4957469;29;20494;-64
2022/08/13 08:34:50;;;;;;;2.90;1.83;;;31.80;47.00;;;;;;4956928;29;20467;-65
2022/08/13 08:42:48;;;;;;;2.40;2.30;;;31.90;48.50;;;;;;4957903;29;20518;-66
2022/08/13 08:45:18;;;;;;;2.37;2.27;;;32.30;47.30;;;;;;4957490;29;20435;-65
2022/08/13 08:47:48;;;;;;;3.60;3.40;;;32.50;46.00;;;;;;4957355;29;20435;-66
2022/08/13 08:50:15;;;;;;;2.67;2.47;;;32.60;47.10;;;;;;4958237;29;20443;-65
2022/08/13 08:55:27;;;;;;;5.43;4.13;;;32.40;46.80;;;;;;4957160;29;20910;-63
2022/08/13 08:57:56;;;;;;;3.20;3.00;;;31.90;47.00;;;;;;4957343;29;20440;-65
2022/08/13 09:00:23;;;;;;;2.53;2.43;;;31.20;48.70;;;;;;4956968;29;20459;-64
2022/08/13 09:02:52;;;;;;;2.43;2.23;;;31.00;48.20;;;;;;4957125;29;20843;-64
2022/08/13 09:05:21;;;;;;;4.90;3.80;;;31.00;48.10;;;;;;4957072;29;20455;-65
2022/08/13 09:07:49;;;;;;;6.43;2.80;;;31.30;49.30;;;;;;4956898;29;20547;-65
2022/08/13 09:10:17;;;;;;;3.43;2.60;;;31.40;48.50;;;;;;4957092;29;20546;-65
2022/08/13 09:12:46;;;;;;;2.23;2.10;;;32.10;48.40;;;;;;4957192;29;20556;-64
2022/08/13 09:15:14;;;;;;;5.70;2.63;;;32.60;47.30;;;;;;4956996;29;20961;-65
2022/08/13 09:17:42;;;;;;;2.30;2.10;;;32.70;47.50;;;;;;4956726;29;20980;-68
2022/08/13 09:20:13;;;;;;;2.17;1.97;;;32.50;46.50;;;;;;4956571;28;20463;-65
2022/08/13 09:22:41;;;;;;;2.30;2.20;;;32.20;46.30;;;;;;4956852;29;20443;-64
2022/08/13 09:25:09;;;;;;;9.20;2.70;;;32.20;46.30;;;;;;4956804;29;20825;-65
2022/08/13 09:27:38;;;;;;;3.00;2.50;;;32.60;45.70;;;;;;4956588;29;20465;-64
2022/08/13 09:30:06;;;;;;;3.13;2.10;;;33.10;45.20;;;;;;4956313;29;21010;-64
2022/08/13 09:32:33;;;;;;;3.93;2.33;;;33.70;45.50;;;;;;4956532;29;20479;-63
2022/08/13 09:35:01;;;;;;;2.60;2.50;;;34.00;43.70;;;;;;4956585;29;20497;-65
2022/08/13 09:37:31;;;;;;;4.70;4.33;;;34.50;44.00;;;;;;4956407;29;20455;-65
2022/08/13 09:40:06;;;;;;;7.00;5.10;;;35.10;43.40;;;;;;4956143;29;20906;-65
2022/08/13 09:42:37;;;;;;;4.30;3.90;;;35.50;42.50;;;;;;4955960;29;20470;-65
2022/08/13 09:45:06;;;;;;;2.10;2.00;;;36.10;42.30;;;;;;4956302;29;20435;-65
2022/08/13 09:47:33;;;;;;;1.90;1.80;;;36.60;40.60;;;;;;4956378;29;20495;-66
2022/08/13 09:49:59;;;;;;;2.43;2.33;;;37.00;40.00;;;;;;4956286;29;20486;-66
2022/08/13 09:52:26;;;;;;;1.80;1.80;;;37.70;39.00;;;;;;4955954;29;20479;-66
2022/08/13 09:54:57;;;;;;;2.83;2.10;;;38.10;38.60;;;;;;4956971;29;20859;-65
2022/08/13 09:57:25;;;;;;;1.87;1.70;;;38.50;38.40;;;;;;4957455;29;20443;-65
2022/08/13 09:59:52;;;;;;;2.30;2.10;;;38.80;37.00;;;;;;4956422;29;20509;-66
2022/08/13 10:02:21;;;;;;;1.93;1.83;;;38.90;37.40;;;;;;4955589;29;20479;-65
2022/08/13 10:04:56;;;;;;;2.00;1.90;;;39.00;36.50;;;;;;4955740;29;20943;-64
2022/08/13 10:07:23;;;;;;;3.40;2.03;;;38.90;35.80;;;;;;4956183;29;20443;-64
2022/08/13 10:09:50;;;;;;;2.60;1.83;;;38.70;36.80;;;;;;4956854;29;20459;-64
2022/08/13 10:12:18;;;;;;;2.63;2.03;;;38.70;36.30;;;;;;4955782;29;20978;-63
2022/08/13 10:14:46;;;;;;;2.00;1.90;;;38.20;36.70;;;;;;4956138;29;20459;-64
2022/08/13 10:17:16;;;;;;;3.27;1.90;;;38.00;37.10;;;;;;4956226;29;20486;-64
2022/08/13 10:19:44;;;;;;;4.40;1.80;;;37.80;37.10;;;;;;4955848;29;20443;-64
2022/08/13 10:22:11;;;;;;;2.00;1.90;;;38.10;36.20;;;;;;4955782;29;20477;-64
2022/08/13 10:24:37;;;;;;;2.20;2.10;;;38.30;35.30;;;;;;4955945;29;20463;-63
2022/08/13 10:27:06;;;;;;;3.40;2.00;;;38.10;34.80;;;;;;4955863;29;20462;-62
2022/08/13 10:29:36;;;;;;;2.10;2.00;;;37.30;35.50;;;;;;4955599;29;20982;-63
2022/08/13 10:32:06;;;;;;;3.30;2.07;;;36.60;35.90;;;;;;4958602;28;20507;-63
2022/08/13 10:34:32;;;;;;;5.47;2.03;;;35.90;36.50;;;;;;4960089;29;20549;-70
2022/08/13 10:37:02;;;;;;;1.97;1.87;;;35.60;37.90;;;;;;4959712;29;20516;-63
2022/08/13 10:39:30;;;;;;;2.20;1.80;;;35.40;36.60;;;;;;4960103;29;20444;-63
2022/08/13 10:41:57;;;;;;;5.83;1.97;;;34.80;37.20;;;;;;4959720;29;20479;-63
2022/08/13 10:44:23;;;;;;;2.00;1.83;;;34.30;38.80;;;;;;4959782;29;20451;-63
2022/08/13 10:46:51;;;;;;;7.03;3.00;;;34.10;38.70;;;;;;4960254;29;20463;-63
2022/08/13 10:49:18;;;;;;;3.70;1.80;;;34.10;39.60;;;;;;4959969;29;20486;-63
2022/08/13 10:51:45;;;;;;;2.27;1.90;;;34.20;39.20;;;;;;4960738;29;20475;-67
2022/08/13 10:54:12;;;;;;;4.83;1.70;;;34.50;38.60;;;;;;4962206;29;20451;-63
2022/08/13 10:56:38;;;;;;;1.90;1.80;;;34.90;37.90;;;;;;4962321;29;20820;-63
2022/08/13 10:59:06;;;;;;;3.47;2.10;;;34.90;37.10;;;;;;4963344;29;20459;-64
2022/08/13 11:01:33;;;;;;;1.90;1.80;;;34.30;37.10;;;;;;4963694;29;20483;-62
2022/08/13 11:04:02;;;;;;;2.10;1.90;;;33.80;37.70;;;;;;4961818;29;20451;-63
2022/08/13 11:06:29;;;;;;;3.27;1.70;;;33.60;38.80;;;;;;4960226;29;20466;-63
2022/08/13 11:08:57;;;;;;;1.93;1.80;;;33.60;39.40;;;;;;4959715;29;20489;-65
2022/08/13 11:11:25;;;;;;;1.67;1.57;;;33.90;38.60;;;;;;4959476;29;20495;-72
2022/08/13 11:13:52;;;;;;;1.97;1.80;;;34.50;38.40;;;;;;4959355;29;20483;-63
2022/08/13 11:19:15;;;;;;;2.77;2.10;;;35.20;37.20;;;;;;4924201;29;20446;-65
2022/08/13 11:21:46;;;;;;;6.23;2.20;;;35.60;36.80;;;;;;4958806;29;20934;-63
2022/08/13 11:24:13;;;;;;;1.80;1.70;;;35.90;36.30;;;;;;4958998;29;20450;-66
2022/08/13 11:26:40;;;;;;;3.10;1.97;;;36.00;37.40;;;;;;4958979;29;20487;-63
2022/08/13 11:29:07;;;;;;;2.10;1.87;;;36.00;36.70;;;;;;4959229;29;20522;-64
2022/08/13 11:31:34;;;;;;;3.53;2.00;;;35.80;36.30;;;;;;4958345;29;20986;-63
2022/08/13 11:34:01;;;;;;;2.37;2.17;;;35.70;36.60;;;;;;4958774;29;20501;-64
2022/08/13 11:36:29;;;;;;;1.73;1.63;;;35.30;36.20;;;;;;4958949;29;20458;-63
2022/08/13 11:38:56;;;;;;;1.90;1.80;;;35.10;36.00;;;;;;4958093;29;21005;-64
2022/08/13 11:41:23;;;;;;;1.63;1.63;;;34.60;36.60;;;;;;4958619;29;20537;-63
2022/08/13 11:43:51;;;;;;;3.33;1.80;;;34.30;37.80;;;;;;4957348;28;20459;-64
2022/08/13 11:46:18;;;;;;;3.63;1.60;;;34.20;38.20;;;;;;4958378;29;20455;-64
2022/08/13 11:48:45;;;;;;;2.60;1.60;;;34.00;38.20;;;;;;4958133;29;20946;-65
2022/08/13 11:51:12;;;;;;;3.03;1.70;;;34.00;37.60;;;;;;4958302;29;20486;-64
2022/08/13 11:53:40;;;;;;;4.40;1.97;;;34.10;37.70;;;;;;4958344;29;20475;-64
2022/08/13 11:56:07;;;;;;;1.60;1.50;;;34.00;37.80;;;;;;4958299;29;20455;-65
2022/08/13 11:58:34;;;;;;;3.17;1.80;;;33.90;38.30;;;;;;4958168;29;20536;-65
2022/08/13 12:01:06;;;;;;;2.50;1.80;;;33.80;37.40;;;;;;4957843;29;20487;-64
2022/08/13 12:03:34;;;;;;;2.67;1.47;;;33.80;38.20;;;;;;4958048;29;20899;-65
2022/08/13 12:06:01;;;;;;;1.87;1.77;;;33.80;36.90;;;;;;4958043;29;20983;-64
2022/08/13 12:08:28;;;;;;;1.90;1.80;;;33.70;37.80;;;;;;4958579;29;20466;-63
2022/08/13 12:10:56;;;;;;;1.60;1.60;;;33.60;37.90;;;;;;4958023;29;20479;-63
2022/08/13 12:13:23;;;;;;;2.83;1.90;;;33.80;38.40;;;;;;4957879;29;20479;-63
2022/08/13 12:15:50;;;;;;;2.90;1.60;;;34.00;37.90;;;;;;4958066;29;20459;-64
2022/08/13 12:18:18;;;;;;;2.03;1.93;;;33.90;37.80;;;;;;4957944;29;20515;-64
2022/08/13 12:20:45;;;;;;;2.00;1.83;;;34.00;37.50;;;;;;4957408;29;20475;-63
2022/08/13 12:23:12;;;;;;;2.90;1.77;;;33.90;37.20;;;;;;4958014;29;20511;-64
2022/08/13 12:25:39;;;;;;;2.07;1.97;;;33.70;37.80;;;;;;4958050;29;20973;-63
2022/08/13 12:28:17;;;;;;;2.13;2.03;;;33.30;37.30;;;;;;4958658;29;20857;-64
2022/08/13 12:30:46;;;;;;;5.13;1.73;;;33.30;38.80;;;;;;4958541;29;20590;-63
2022/08/13 12:33:12;;;;;;;1.93;1.57;;;33.40;38.90;;;;;;4957971;29;20487;-65
2022/08/13 12:35:39;;;;;;;3.40;1.70;;;33.40;38.10;;;;;;4957607;29;20455;-64
2022/08/13 12:38:10;;;;;;;2.70;1.80;;;33.40;37.80;;;;;;4957655;29;20455;-63
2022/08/13 12:40:37;;;;;;;1.73;1.73;;;33.30;38.40;;;;;;4957741;29;20483;-63
2022/08/13 12:43:04;;;;;;;6.10;2.30;;;33.20;37.40;;;;;;4957668;29;20451;-64
2022/08/13 12:45:34;;;;;;;2.90;1.40;;;33.10;38.70;;;;;;4957407;29;20456;-64
2022/08/13 12:48:08;;;;;;;1.73;1.60;;;33.30;38.60;;;;;;4957033;29;20939;-64
2022/08/13 12:50:36;;;;;;;2.10;2.00;;;33.40;38.70;;;;;;4957010;29;21003;-63
2022/08/13 12:53:03;;;;;;;5.20;1.80;;;33.40;37.10;;;;;;4957237;29;20479;-64
2022/08/13 12:55:30;;;;;;;2.10;1.77;;;33.60;37.80;;;;;;4956710;29;20961;-64
2022/08/13 12:57:58;;;;;;;2.00;1.70;;;33.70;38.50;;;;;;4957207;29;20462;-64
2022/08/13 13:00:26;;;;;;;2.20;1.77;;;33.60;38.00;;;;;;4956721;29;20455;-64
2022/08/13 13:02:54;;;;;;;3.43;2.00;;;33.60;38.10;;;;;;4960016;29;20444;-63
2022/08/13 13:05:21;;;;;;;1.83;1.73;;;33.40;37.80;;;;;;4965187;29;20535;-64
2022/08/13 13:07:49;;;;;;;1.77;1.77;;;33.30;36.70;;;;;;4968537;29;20455;-64
2022/08/13 13:10:16;;;;;;;2.00;1.77;;;33.40;37.80;;;;;;4972222;29;20469;-63
2022/08/13 13:12:43;;;;;;;2.23;1.83;;;33.30;37.80;;;;;;4971675;29;20463;-64
2022/08/13 13:15:10;;;;;;;1.80;1.70;;;33.30;36.80;;;;;;4971103;29;20929;-65
2022/08/13 13:17:39;;;;;;;1.90;1.80;;;33.30;37.40;;;;;;4961350;29;20466;-63
2022/08/13 13:20:09;;;;;;;2.00;1.90;;;33.30;37.40;;;;;;4958262;29;20455;-64
2022/08/13 13:22:37;;;;;;;2.20;2.10;;;33.30;37.40;;;;;;4957995;29;20475;-63
2022/08/13 13:25:05;;;;;;;3.07;1.40;;;33.10;37.50;;;;;;4957579;29;20459;-65
2022/08/13 13:27:32;;;;;;;1.57;1.50;;;32.80;37.30;;;;;;4957543;29;20452;-65
2022/08/13 13:29:58;;;;;;;1.50;1.40;;;32.80;36.70;;;;;;4957051;29;20542;-65
2022/08/13 13:32:25;;;;;;;1.73;1.63;;;32.90;37.20;;;;;;4956733;29;20479;-66
2022/08/13 13:34:52;;;;;;;1.90;1.80;;;32.70;37.10;;;;;;4956686;29;20467;-66
2022/08/13 13:37:20;;;;;;;4.20;1.90;;;32.60;37.30;;;;;;4956560;29;20460;-67
2022/08/13 13:39:47;;;;;;;1.60;1.50;;;32.60;36.90;;;;;;4956203;29;20455;-66
2022/08/13 13:42:13;;;;;;;1.50;1.50;;;32.30;36.30;;;;;;4957015;29;20502;-68
2022/08/13 13:44:40;;;;;;;6.77;1.80;;;32.10;37.10;;;;;;4956038;29;20994;-67
2022/08/13 13:47:07;;;;;;;1.93;1.73;;;31.70;37.10;;;;;;4956313;29;20467;-68
2022/08/13 13:49:33;;;;;;;1.70;1.70;;;31.60;37.90;;;;;;4956203;29;20451;-68
2022/08/13 13:52:00;;;;;;;3.30;1.70;;;31.40;37.80;;;;;;4956038;29;20483;-68
2022/08/13 13:54:28;;;;;;;2.00;1.80;;;31.60;38.40;;;;;;4956095;29;20464;-67
2022/08/13 13:56:55;;;;;;;2.33;1.90;;;31.70;38.30;;;;;;4955771;29;20860;-67
2022/08/13 13:59:22;;;;;;;1.83;1.70;;;31.80;37.80;;;;;;4956148;29;20487;-68
2022/08/13 14:01:49;;;;;;;2.20;1.70;;;31.80;37.60;;;;;;4955831;29;21021;-68
2022/08/13 14:04:16;;;;;;;1.77;1.67;;;32.00;37.60;;;;;;4956360;29;20460;-68
2022/08/13 14:06:44;;;;;;;1.77;1.63;;;32.10;38.40;;;;;;4955430;28;20456;-68
2022/08/13 14:09:13;;;;;;;4.27;1.60;;;32.20;37.30;;;;;;4955897;29;20452;-67
2022/08/13 14:11:46;;;;;;;1.70;1.60;;;32.40;37.00;;;;;;4955767;29;20483;-69
2022/08/13 14:14:13;;;;;;;1.60;1.60;;;32.50;37.10;;;;;;4955770;29;20475;-67
2022/08/13 14:16:40;;;;;;;2.30;2.10;;;32.50;37.90;;;;;;4955968;29;20463;-67
2022/08/13 14:19:07;;;;;;;3.83;1.23;;;32.60;37.40;;;;;;4955827;29;20459;-67
2022/08/13 14:21:34;;;;;;;1.70;1.60;;;32.70;36.80;;;;;;4955533;29;21009;-68
2022/08/13 14:24:01;;;;;;;2.17;1.80;;;32.40;36.50;;;;;;4956591;29;20452;-67
2022/08/13 14:26:29;;;;;;;1.80;1.70;;;32.30;37.30;;;;;;4956623;29;20463;-67
2022/08/13 14:28:57;;;;;;;3.23;1.50;;;32.00;37.00;;;;;;4955635;29;20463;-68
2022/08/13 14:31:24;;;;;;;1.93;1.83;;;31.90;37.10;;;;;;4955927;29;20475;-67
2022/08/13 14:33:54;;;;;;;4.53;1.57;;;31.80;37.90;;;;;;4955677;29;20491;-69
2022/08/13 14:36:24;;;;;;;2.10;2.00;;;31.80;37.90;;;;;;4955973;29;20444;-69
2022/08/13 14:38:51;;;;;;;1.57;1.53;;;32.00;38.10;;;;;;4955916;29;20440;-69
2022/08/13 14:41:18;;;;;;;1.90;1.80;;;32.20;38.20;;;;;;4955909;29;20479;-69
2022/08/13 14:43:47;;;;;;;1.40;1.40;;;32.30;37.70;;;;;;4956355;29;20440;-70
2022/08/13 14:46:16;;;;;;;1.83;1.73;;;32.60;37.50;;;;;;4956362;29;20459;-69
2022/08/13 14:48:43;;;;;;;2.10;1.70;;;32.70;37.10;;;;;;4956609;29;20476;-69
2022/08/13 14:51:10;;;;;;;3.23;1.77;;;32.60;36.40;;;;;;4957696;29;20472;-69
2022/08/13 14:53:38;;;;;;;1.50;1.50;;;32.40;36.30;;;;;;4958118;29;20482;-69
2022/08/13 14:56:05;;;;;;;1.80;1.70;;;32.20;36.90;;;;;;4960573;29;20827;-69
2022/08/13 14:58:33;;;;;;;1.47;1.47;;;32.20;36.80;;;;;;4963670;29;20455;-68
2022/08/13 15:01:00;;;;;;;1.50;1.50;;;32.10;36.30;;;;;;4962465;29;20483;-68
2022/08/13 15:03:29;;;;;;;1.90;1.70;;;32.10;36.90;;;;;;4960792;29;20459;-71
2022/08/13 15:06:00;;;;;;;1.50;1.40;;;32.20;36.70;;;;;;4959623;29;20466;-70
2022/08/13 15:08:29;;;;;;;2.17;1.70;;;32.30;37.00;;;;;;4958365;29;20472;-70
2022/08/13 15:10:57;;;;;;;1.60;1.50;;;32.30;36.40;;;;;;4956764;29;20506;-69
2022/08/13 15:13:24;;;;;;;1.87;1.77;;;32.40;36.70;;;;;;4958168;29;20475;-70
2022/08/13 15:15:53;;;;;;;1.73;1.60;;;32.40;36.30;;;;;;4957130;29;20464;-69
2022/08/13 15:18:21;;;;;;;1.77;1.63;;;32.30;36.10;;;;;;4960932;28;20487;-73
2022/08/13 15:20:52;;;;;;;1.53;1.53;;;32.30;37.40;;;;;;4963663;29;20470;-68
2022/08/13 15:23:20;;;;;;;2.00;1.90;;;32.40;37.00;;;;;;4962898;29;20448;-72
2022/08/13 15:25:47;;;;;;;1.83;1.83;;;32.30;37.00;;;;;;4961991;29;20455;-71
2022/08/13 15:28:14;;;;;;;1.90;1.70;;;32.30;36.90;;;;;;4961284;29;20494;-73
2022/08/13 15:30:43;;;;;;;3.33;1.77;;;32.40;36.20;;;;;;4962580;29;20474;-70
2022/08/13 15:33:11;;;;;;;1.80;1.70;;;32.30;37.40;;;;;;4963320;29;20455;-68
2022/08/13 15:35:40;;;;;;;1.60;1.50;;;32.30;36.90;;;;;;4964356;29;20466;-68
2022/08/13 15:38:12;;;;;;;2.00;1.90;;;32.40;36.30;;;;;;4965023;29;20463;-67
2022/08/13 15:40:39;;;;;;;2.30;1.80;;;32.40;36.00;;;;;;4963496;29;20479;-68
2022/08/13 15:43:07;;;;;;;2.27;2.17;;;32.30;36.30;;;;;;4958723;29;20478;-73
2022/08/13 15:45:35;;;;;;;1.77;1.70;;;32.10;36.50;;;;;;4958518;29;20452;-70
2022/08/13 15:48:06;;;;;;;2.93;1.80;;;32.10;36.80;;;;;;4958616;29;20464;-73
2022/08/13 15:50:35;;;;;;;1.83;1.73;;;32.10;36.90;;;;;;4958446;29;20450;-69
2022/08/13 15:53:03;;;;;;;2.00;1.90;;;32.10;37.20;;;;;;4958100;29;20881;-67
2022/08/13 15:55:31;;;;;;;2.63;2.53;;;32.10;36.70;;;;;;4958760;29;20519;-69
2022/08/13 15:57:58;;;;;;;2.33;2.10;;;32.10;37.00;;;;;;4958412;29;20833;-70
2022/08/13 16:00:24;;;;;;;3.80;1.70;;;32.10;37.20;;;;;;4958550;29;20943;-70
2022/08/13 16:02:53;;;;;;;1.70;1.60;;;32.10;37.10;;;;;;4958450;29;20451;-69
2022/08/13 16:05:22;;;;;;;2.20;2.07;;;31.90;37.50;;;;;;4958425;29;20459;-68
2022/08/13 16:07:51;;;;;;;1.67;1.67;;;32.00;38.00;;;;;;4958493;29;20459;-69
2022/08/13 16:10:19;;;;;;;2.53;2.00;;;31.90;37.40;;;;;;4958245;29;20459;-68
2022/08/13 16:12:47;;;;;;;2.40;1.87;;;31.80;37.80;;;;;;4958071;29;20462;-68
2022/08/13 16:15:15;;;;;;;1.80;1.70;;;31.70;37.80;;;;;;4958066;29;20506;-68
2022/08/13 16:17:46;;;;;;;2.80;1.40;;;31.60;38.20;;;;;;4958208;29;20859;-69
2022/08/13 16:20:13;;;;;;;2.40;1.90;;;31.60;38.00;;;;;;4957596;29;20435;-70
2022/08/13 16:22:40;;;;;;;2.33;2.23;;;31.60;38.10;;;;;;4958655;29;20502;-70
2022/08/13 16:25:18;;;;;;;2.00;1.80;;;31.60;38.40;;;;;;4958737;29;20490;-67
2022/08/13 16:27:49;;;;;;;2.23;2.13;;;31.30;37.20;;;;;;4958022;29;20460;-70
2022/08/13 16:30:17;;;;;;;4.47;3.60;;;31.20;37.90;;;;;;4957227;29;20479;-68
2022/08/13 16:32:45;;;;;;;2.50;2.00;;;31.10;38.20;;;;;;4958384;29;20459;-70
2022/08/13 16:35:13;;;;;;;2.27;2.07;;;31.10;38.10;;;;;;4957362;29;20483;-68
2022/08/13 16:37:40;;;;;;;2.60;2.00;;;30.90;38.60;;;;;;4957438;29;20459;-70
2022/08/13 16:40:13;;;;;;;2.00;1.90;;;30.90;38.80;;;;;;4957662;29;20463;-70
2022/08/13 16:42:41;;;;;;;2.10;2.00;;;30.90;38.70;;;;;;4957481;29;20480;-71
2022/08/13 16:45:13;;;;;;;4.50;2.10;;;30.80;38.80;;;;;;4957470;29;20447;-69
2022/08/13 16:47:42;;;;;;;2.43;2.10;;;30.70;38.90;;;;;;4957383;29;20444;-68
2022/08/13 16:50:13;;;;;;;2.30;2.20;;;30.60;39.10;;;;;;4957238;29;20470;-68
2022/08/13 16:52:40;;;;;;;2.27;2.10;;;30.60;39.30;;;;;;4956786;29;20996;-70
2022/08/13 16:55:07;;;;;;;2.00;1.73;;;30.60;39.20;;;;;;4957129;29;20479;-69
2022/08/13 16:57:44;;;;;;;2.30;2.10;;;30.50;39.70;;;;;;4956931;29;20939;-66
2022/08/13 17:00:16;;;;;;;5.00;2.57;;;30.40;39.80;;;;;;4956979;29;20498;-65
2022/08/13 17:11:07;;;;;;;2.40;2.30;;;30.20;40.10;;;;;;4956812;29;20454;-66
2022/08/13 17:13:34;;;;;;;2.00;1.90;;;30.10;40.00;;;;;;4957050;29;20502;-69
2022/08/13 17:16:04;;;;;;;2.50;2.40;;;30.00;40.40;;;;;;4956835;29;20483;-68